Time;durP1;ratioP1;P1;durP2;ratioP2;P2;SDS_P1;SDS_P2;PMS_P1;PMS_P2;Temp;Humidity;BMP_temperature;BMP_pressure;BME280_temperature;BME280_humidity;BME280_pressure;Samples;Min_cycle;Max_cycle;Signal;HPM_P1;HPM_P2
2022/07/26 00:01:23;;;;;;;8.18;4.00;;;;;;;24.59;53.12;99754.66;5026563;28;20053;-27
2022/07/26 00:03:50;;;;;;;5.32;3.85;;;;;;;24.72;52.75;99753.69;5027878;28;20701;-31
2022/07/26 00:06:16;;;;;;;6.72;3.83;;;;;;;24.54;53.52;99760.25;5027827;28;20057;-27
2022/07/26 00:08:42;;;;;;;7.28;4.30;;;;;;;24.49;53.45;99741.31;5026311;28;20045;-27
2022/07/26 00:11:08;;;;;;;6.00;3.65;;;;;;;24.46;53.64;99729.94;5027691;28;20037;-27
2022/07/26 00:13:34;;;;;;;7.20;4.38;;;;;;;24.42;53.80;99745.31;5026121;28;20815;-28
2022/07/26 00:15:59;;;;;;;7.15;4.03;;;;;;;24.39;54.03;99759.56;5027336;28;20060;-27
2022/07/26 00:18:25;;;;;;;8.70;4.18;;;;;;;24.34;53.83;99737.16;5027765;28;20038;-30
2022/07/26 00:20:51;;;;;;;5.93;3.80;;;;;;;24.27;54.54;99743.03;5026277;28;20125;-30
2022/07/26 00:23:18;;;;;;;8.05;4.30;;;;;;;24.40;54.44;99758.47;5026284;28;20037;-31
2022/07/26 00:25:45;;;;;;;9.43;4.10;;;;;;;24.23;55.38;99740.19;5025900;28;20033;-27
2022/07/26 00:28:11;;;;;;;6.90;3.97;;;;;;;24.51;54.22;99756.25;5027542;28;20044;-28
2022/07/26 00:30:37;;;;;;;6.40;4.28;;;;;;;24.27;54.45;99737.59;5026031;28;20028;-28
2022/07/26 00:33:03;;;;;;;8.20;4.22;;;;;;;24.65;53.72;99742.47;5027354;28;20099;-26
2022/07/26 00:35:28;;;;;;;7.40;4.13;;;;;;;24.78;53.29;99752.41;5025765;28;20076;-30
2022/07/26 00:37:53;;;;;;;7.50;4.00;;;;;;;24.58;54.46;99758.50;5027376;28;20470;-28
2022/07/26 00:40:19;;;;;;;7.20;4.22;;;;;;;24.74;53.82;99762.34;5027395;28;20025;-28
2022/07/26 00:42:45;;;;;;;7.95;4.03;;;;;;;24.71;53.67;99768.47;5027374;28;20084;-28
2022/07/26 00:45:12;;;;;;;6.55;4.18;;;;;;;24.41;54.22;99759.25;5026009;28;20075;-32
2022/07/26 00:47:38;;;;;;;7.07;4.00;;;;;;;24.50;54.90;99759.28;5025717;28;20071;-30
2022/07/26 00:50:06;;;;;;;6.28;4.30;;;;;;;24.44;55.48;99759.44;5025791;28;20788;-30
2022/07/26 00:52:32;;;;;;;7.38;4.05;;;;;;;24.12;55.58;99729.91;5026007;28;20048;-28
2022/07/26 00:54:58;;;;;;;7.97;3.95;;;;;;;24.24;56.09;99760.03;5027268;28;20487;-27
2022/07/26 00:57:23;;;;;;;8.88;4.20;;;;;;;24.18;56.24;99742.25;5027092;28;20033;-27
2022/07/26 00:59:50;;;;;;;8.07;4.60;;;;;;;24.03;57.17;99754.41;5027256;28;20076;-27
2022/07/26 01:02:17;;;;;;;9.47;4.80;;;;;;;24.23;56.72;99759.25;5027172;28;20065;-33
2022/07/26 01:04:43;;;;;;;5.72;3.92;;;;;;;24.21;56.28;99747.03;5025641;28;20029;-29
2022/07/26 01:07:09;;;;;;;6.70;4.20;;;;;;;23.99;57.05;99753.44;5025788;28;20053;-28
2022/07/26 01:09:36;;;;;;;5.50;4.10;;;;;;;23.95;57.66;99750.53;5025440;28;20454;-28
2022/07/26 01:12:02;;;;;;;10.00;4.60;;;;;;;23.90;57.59;99745.22;5030875;28;20110;-30
2022/07/26 01:14:27;;;;;;;7.10;4.65;;;;;;;23.86;57.53;99744.22;5030965;28;20120;-29
2022/07/26 01:16:53;;;;;;;6.80;4.53;;;;;;;23.96;57.23;99743.94;5030547;28;20141;-28
2022/07/26 01:19:20;;;;;;;7.82;4.57;;;;;;;23.76;57.64;99744.50;5030843;28;20421;-28
2022/07/26 01:21:45;;;;;;;6.72;4.43;;;;;;;23.69;58.48;99744.16;5029658;28;20038;-27
2022/07/26 01:24:11;;;;;;;6.90;4.65;;;;;;;23.54;59.15;99738.00;5030672;28;20061;-28
2022/07/26 01:26:37;;;;;;;7.82;5.00;;;;;;;23.58;59.03;99747.16;5029673;28;20033;-29
2022/07/26 01:29:03;;;;;;;8.52;4.70;;;;;;;23.46;59.41;99741.50;5030967;28;20541;-29
2022/07/26 01:31:29;;;;;;;6.68;5.13;;;;;;;23.29;59.79;99741.38;5029261;28;20497;-32
2022/07/26 01:33:54;;;;;;;7.20;4.95;;;;;;;23.55;59.20;99736.88;5030897;28;20106;-30
2022/07/26 01:36:20;;;;;;;7.55;4.97;;;;;;;23.37;59.61;99735.19;5029358;28;20037;-29
2022/07/26 01:38:45;;;;;;;7.95;4.88;;;;;;;23.40;59.68;99738.09;5030644;28;20071;-30
2022/07/26 01:41:11;;;;;;;7.45;4.50;;;;;;;23.22;60.04;99729.03;5029538;28;20044;-29
2022/07/26 01:43:37;;;;;;;9.25;5.40;;;;;;;23.39;59.94;99749.28;5030564;28;20116;-29
2022/07/26 01:46:04;;;;;;;8.05;4.82;;;;;;;23.62;59.44;99733.69;5029118;28;20128;-29
2022/07/26 01:48:30;;;;;;;7.38;4.82;;;;;;;23.57;59.11;99739.28;5029239;28;20143;-27
2022/07/26 01:50:56;;;;;;;8.30;5.32;;;;;;;23.57;59.27;99742.81;5030539;28;20453;-27
2022/07/26 01:53:21;;;;;;;7.63;4.40;;;;;;;23.64;59.10;99734.22;5030049;28;20025;-28
2022/07/26 01:55:47;;;;;;;6.85;5.32;;;;;;;23.23;59.39;99716.22;5029148;28;20087;-29
2022/07/26 01:58:13;;;;;;;8.57;5.25;;;;;;;23.00;60.94;99737.19;5030306;28;20029;-32
2022/07/26 02:00:39;;;;;;;8.43;5.50;;;;;;;22.83;61.78;99735.97;5028936;28;20116;-28
2022/07/26 02:03:04;;;;;;;7.78;5.32;;;;;;;22.70;62.27;99731.41;5030463;28;20112;-28
2022/07/26 02:05:30;;;;;;;8.07;5.70;;;;;;;22.67;62.36;99742.88;5029978;28;20108;-28
2022/07/26 02:07:55;;;;;;;7.13;5.25;;;;;;;22.69;62.70;99740.66;5029833;28;20061;-27
2022/07/26 02:10:22;;;;;;;7.07;4.95;;;;;;;22.59;62.82;99732.72;5030254;28;20022;-28
2022/07/26 02:12:47;;;;;;;8.52;5.30;;;;;;;22.37;63.32;99731.59;5028693;28;20105;-30
2022/07/26 02:15:13;;;;;;;7.15;5.35;;;;;;;22.41;63.16;99732.59;5030256;28;20124;-35
2022/07/26 02:17:39;;;;;;;8.57;6.03;;;;;;;22.52;62.82;99733.16;5029947;28;20115;-27
2022/07/26 02:20:05;;;;;;;7.85;4.82;;;;;;;22.55;62.33;99712.72;5028489;28;20053;-28
2022/07/26 02:22:31;;;;;;;10.80;5.80;;;;;;;22.79;61.54;99715.94;5029618;28;20029;-29
2022/07/26 02:24:56;;;;;;;10.05;5.65;;;;;;;22.90;61.67;99729.28;5029783;28;20036;-27
2022/07/26 02:27:21;;;;;;;12.82;5.70;;;;;;;22.95;60.93;99721.00;5011854;28;20029;-30
2022/07/26 02:29:47;;;;;;;8.18;5.50;;;;;;;23.03;61.42;99734.69;5030020;28;20049;-28
2022/07/26 02:32:13;;;;;;;10.98;5.43;;;;;;;22.96;60.99;99723.41;5029911;28;20193;-32
2022/07/26 02:34:38;;;;;;;9.00;5.70;;;;;;;22.94;60.76;99735.72;5029724;28;20029;-32
2022/07/26 02:37:04;;;;;;;8.60;5.70;;;;;;;22.89;60.70;99744.00;5029799;28;20033;-30
2022/07/26 02:39:29;;;;;;;10.45;5.88;;;;;;;22.43;61.58;99714.06;5029664;28;20091;-27
2022/07/26 02:41:57;;;;;;;11.30;5.80;;;;;;;22.51;61.93;99747.03;5029717;28;20037;-27
2022/07/26 02:44:24;;;;;;;8.50;5.60;;;;;;;22.50;61.82;99753.59;5029649;28;20652;-27
2022/07/26 02:46:50;;;;;;;10.13;6.63;;;;;;;22.64;61.66;99751.66;5029410;28;20037;-31
2022/07/26 02:49:16;;;;;;;11.27;6.07;;;;;;;22.46;62.39;99754.19;5028065;28;20034;-27
2022/07/26 02:51:41;;;;;;;10.65;5.95;;;;;;;22.36;62.74;99753.63;5029113;28;20091;-28
2022/07/26 02:54:07;;;;;;;10.00;5.90;;;;;;;22.32;62.50;99742.56;5029673;28;20103;-28
2022/07/26 02:56:32;;;;;;;10.23;6.10;;;;;;;22.28;63.51;99757.88;5029619;28;20413;-28
2022/07/26 02:58:58;;;;;;;8.10;6.05;;;;;;;22.41;63.33;99761.66;5029280;28;20060;-31
2022/07/26 03:01:23;;;;;;;8.07;6.05;;;;;;;22.05;64.62;99760.47;5029536;28;20103;-30
2022/07/26 03:03:49;;;;;;;7.80;5.57;;;;;;;22.20;64.04;99758.56;5029480;28;20455;-30
2022/07/26 03:06:14;;;;;;;15.52;6.47;;;;;;;;;;5028945;28;20453;-29
2022/07/26 03:08:40;;;;;;;27.48;7.85;;;;;;;22.37;62.51;99734.31;5029235;28;20576;-29
2022/07/26 03:11:05;;;;;;;18.83;6.40;;;;;;;22.65;62.14;99742.38;5027868;28;20456;-29
2022/07/26 03:13:31;;;;;;;12.90;6.32;;;;;;;22.63;62.67;99761.69;5029123;28;20036;-33
2022/07/26 03:15:57;;;;;;;9.40;5.63;;;;;;;22.49;62.85;99743.84;5028970;28;20497;-27
2022/07/26 03:18:22;;;;;;;16.42;7.25;;;;;;;22.48;62.70;99761.25;5029072;28;20025;-27
2022/07/26 03:20:48;;;;;;;11.55;6.68;;;;;;;22.73;61.80;99763.38;5028583;28;20038;-30
2022/07/26 03:23:15;;;;;;;14.70;6.78;;;;;;;22.64;62.44;99770.69;5027514;28;20030;-32
2022/07/26 03:25:40;;;;;;;12.77;6.22;;;;;;;22.42;62.65;99758.63;5026972;28;20432;-30
2022/07/26 03:28:06;;;;;;;9.25;6.60;;;;;;;22.92;61.89;99770.56;5028561;28;20021;-28
2022/07/26 03:30:31;;;;;;;14.13;6.70;;;;;;;23.04;61.34;99779.00;5028578;28;20053;-28
2022/07/26 03:32:57;;;;;;;11.30;6.38;;;;;;;22.75;62.27;99766.59;5027813;28;20025;-30
2022/07/26 03:35:22;;;;;;;7.47;6.10;;;;;;;22.92;61.41;99779.50;5028160;28;20540;-29
2022/07/26 03:37:48;;;;;;;10.25;6.35;;;;;;;22.84;61.64;99780.25;5028774;28;20492;-27
2022/07/26 03:40:15;;;;;;;12.32;6.53;;;;;;;22.54;62.74;99770.91;5027254;28;20119;-28
2022/07/26 03:42:41;;;;;;;11.27;6.45;;;;;;;22.64;62.51;99765.25;5026924;28;20401;-30
2022/07/26 03:45:07;;;;;;;12.93;6.72;;;;;;;22.93;61.50;99761.31;5028336;28;20040;-28
2022/07/26 03:47:32;;;;;;;13.32;7.10;;;;;;;23.17;61.75;99780.03;5028072;28;20031;-28
2022/07/26 03:49:58;;;;;;;9.27;6.45;;;;;;;23.22;60.96;99767.13;5028186;28;20030;-27
2022/07/26 03:52:23;;;;;;;11.57;6.20;;;;;;;22.87;62.19;99775.00;5028318;28;20112;-28
2022/07/26 03:54:49;;;;;;;7.75;6.35;;;;;;;22.51;63.73;99779.66;5028229;28;20735;-30
2022/07/26 03:57:14;;;;;;;11.40;6.43;;;;;;;22.87;62.71;99775.00;5028327;28;20429;-31
2022/07/26 03:59:40;;;;;;;9.70;6.70;;;;;;;22.93;62.42;99783.84;5027993;28;20029;-31
2022/07/26 04:02:05;;;;;;;9.35;6.90;;;;;;;22.72;62.89;99772.66;5027835;28;20029;-30
2022/07/26 04:04:31;;;;;;;8.70;6.53;;;;;;;22.74;63.22;99778.59;5027553;28;20041;-29
2022/07/26 04:06:56;;;;;;;11.68;7.22;;;;;;;22.65;63.12;99772.28;5027983;28;20029;-28
2022/07/26 04:09:22;;;;;;;9.35;6.72;;;;;;;22.58;64.59;99780.06;5026070;28;20429;-28
2022/07/26 04:11:48;;;;;;;12.52;7.50;;;;;;;22.63;64.11;99786.16;5027734;28;20243;-29
2022/07/26 04:14:13;;;;;;;11.93;7.45;;;;;;;22.76;63.62;99773.66;5027759;28;20029;-28
2022/07/26 04:16:39;;;;;;;13.40;8.00;;;;;;;22.72;63.17;99775.38;5027271;28;20580;-28
2022/07/26 04:19:05;;;;;;;10.77;7.38;;;;;;;22.71;63.69;99762.09;5027499;28;20039;-29
2022/07/26 04:21:31;;;;;;;10.38;7.60;;;;;;;23.04;62.47;99768.91;5027593;28;20036;-32
2022/07/26 04:23:56;;;;;;;12.93;7.53;;;;;;;23.35;61.48;99783.69;5027707;28;20135;-30
2022/07/26 04:26:22;;;;;;;11.98;7.95;;;;;;;23.14;62.00;99777.94;5027455;28;20125;-30
2022/07/26 04:28:48;;;;;;;12.48;8.07;;;;;;;23.16;62.05;99781.16;5027776;28;20036;-28
2022/07/26 04:31:14;;;;;;;13.23;9.13;;;;;;;23.04;61.95;99757.25;5026248;28;20033;-28
2022/07/26 04:33:39;;;;;;;14.20;8.95;;;;;;;23.03;62.34;99777.41;5027319;28;20026;-28
2022/07/26 04:36:05;;;;;;;14.98;8.75;;;;;;;23.42;61.71;99767.72;5027718;28;20029;-28
2022/07/26 04:38:30;;;;;;;14.45;8.90;;;;;;;23.72;60.44;99790.63;5027675;28;20025;-28
2022/07/26 04:40:56;;;;;;;12.90;9.40;;;;;;;23.80;60.73;99783.63;5027584;28;20569;-30
2022/07/26 04:43:23;;;;;;;10.95;8.45;;;;;;;23.71;60.61;99766.41;5027416;28;20036;-28
2022/07/26 04:45:49;;;;;;;14.18;8.68;;;;;;;23.50;61.49;99769.69;5026849;28;20033;-27
2022/07/26 04:48:15;;;;;;;13.55;8.38;;;;;;;23.84;60.33;99762.81;5027324;28;20029;-29
2022/07/26 04:50:41;;;;;;;11.70;8.60;;;;;;;23.59;61.13;99770.53;5026131;28;20098;-27
2022/07/26 04:53:08;;;;;;;12.77;9.32;;;;;;;23.85;59.91;99748.09;5025785;28;20029;-28
2022/07/26 04:55:33;;;;;;;13.70;8.97;;;;;;;23.69;61.40;99788.50;5025853;28;20040;-28
2022/07/26 04:57:59;;;;;;;12.70;8.98;;;;;;;23.94;60.29;99773.41;5027374;28;20041;-28
2022/07/26 05:00:24;;;;;;;11.40;9.40;;;;;;;24.06;59.74;99770.88;5027449;28;20029;-28
2022/07/26 05:02:52;;;;;;;13.70;9.32;;;;;;;24.25;58.99;99777.97;5026944;28;20029;-33
2022/07/26 05:05:18;;;;;;;11.27;8.50;;;;;;;24.00;59.60;99753.09;5025639;28;20029;-28
2022/07/26 05:07:49;;;;;;;13.77;9.57;;;;;;;24.36;59.22;99784.75;5027362;28;20036;-28
2022/07/26 05:10:16;;;;;;;11.43;8.80;;;;;;;24.56;58.74;99777.09;5027089;28;20496;-28
2022/07/26 05:12:42;;;;;;;10.98;9.05;;;;;;;24.70;58.40;99775.03;5025904;28;20033;-28
2022/07/26 05:15:08;;;;;;;11.07;8.82;;;;;;;24.66;57.53;99774.06;5025658;28;20107;-29
2022/07/26 05:17:38;;;;;;;16.77;8.00;;;;;;;24.84;56.47;99770.19;5025061;28;20456;-28
2022/07/26 05:20:05;;;;;;;11.77;8.23;;;;;;;24.88;56.69;99764.13;5027138;28;20108;-28
2022/07/26 05:22:31;;;;;;;14.00;9.07;;;;;;;24.83;57.23;99771.34;5025768;28;20044;-28
2022/07/26 05:24:56;;;;;;;14.02;9.95;;;;;;;25.17;56.12;99768.88;5027298;28;20186;-28
2022/07/26 05:27:21;;;;;;;20.65;15.60;;;;;;;24.85;56.78;99758.19;5026907;28;20030;-28
2022/07/26 05:29:47;;;;;;;31.08;22.35;;;;;;;25.27;55.48;99779.50;5026824;28;20025;-30
2022/07/26 05:32:12;;;;;;;23.02;16.85;;;;;;;25.50;55.85;99773.81;5026799;28;20029;-33
2022/07/26 05:34:38;;;;;;;23.60;16.98;;;;;;;25.55;55.50;99773.66;5027038;28;20112;-31
2022/07/26 05:37:03;;;;;;;14.65;10.82;;;;;;;25.54;55.89;99774.78;5026826;28;20033;-28
2022/07/26 05:39:29;;;;;;;11.50;6.68;;;;;;;25.74;52.22;99771.31;5025338;28;20028;-30
2022/07/26 05:41:54;;;;;;;8.80;5.60;;;;;;;25.83;52.07;99777.56;5026995;28;20041;-31
2022/07/26 05:44:22;;;;;;;7.90;6.45;;;;;;;25.68;52.76;99778.09;5027005;28;20034;-28
2022/07/26 05:46:47;;;;;;;8.43;6.30;;;;;;;25.79;54.19;99778.56;5026602;28;20091;-29
2022/07/26 05:49:12;;;;;;;7.75;5.88;;;;;;;25.78;53.13;99763.28;5026665;28;20029;-30
2022/07/26 05:51:38;;;;;;;10.63;5.82;;;;;;;26.02;52.62;99777.16;5025277;28;20037;-32
2022/07/26 05:54:03;;;;;;;9.23;6.07;;;;;;;26.26;52.61;99781.22;5025473;28;20394;-29
2022/07/26 05:56:29;;;;;;;9.13;5.18;;;;;;;26.22;51.03;99781.09;5027681;28;20029;-32
2022/07/26 05:58:54;;;;;;;7.10;5.28;;;;;;;26.20;51.69;99774.34;5030677;28;20390;-28
2022/07/26 06:01:20;;;;;;;9.02;5.68;;;;;;;26.32;50.87;99782.63;5030045;28;20056;-30
2022/07/26 06:03:45;;;;;;;7.72;4.78;;;;;;;25.98;50.72;99759.84;5030701;28;20030;-28
2022/07/26 06:06:11;;;;;;;8.52;4.78;;;;;;;26.27;50.21;99769.16;5030339;28;20034;-30
2022/07/26 06:08:36;;;;;;;8.07;5.35;;;;;;;26.24;51.78;99751.47;5028923;28;20025;-28
2022/07/26 06:11:02;;;;;;;7.90;5.35;;;;;;;26.46;51.33;99758.56;5029040;28;20064;-33
2022/07/26 06:13:27;;;;;;;7.90;5.20;;;;;;;26.46;51.20;99764.03;5030082;28;20060;-34
2022/07/26 06:15:53;;;;;;;10.50;5.03;;;;;;;26.46;50.93;99764.03;5029848;28;20080;-34
2022/07/26 06:18:18;;;;;;;12.13;5.68;;;;;;;26.81;50.78;99763.78;5028857;28;20033;-29
2022/07/26 06:20:46;;;;;;;7.18;5.50;;;;;;;26.79;51.09;99760.59;5030131;28;20076;-29
2022/07/26 06:23:12;;;;;;;7.05;5.28;;;;;;;27.01;50.51;99751.22;5030269;28;20076;-28
2022/07/26 06:25:38;;;;;;;9.38;5.68;;;;;;;27.08;51.07;99756.16;5028319;28;20446;-30
2022/07/26 06:28:05;;;;;;;8.48;5.15;;;;;;;27.13;49.84;99764.13;5030097;28;20539;-29
2022/07/26 06:30:31;;;;;;;9.43;5.47;;;;;;;27.21;50.38;99755.03;5028467;28;20091;-29
2022/07/26 06:32:57;;;;;;;7.10;5.05;;;;;;;27.50;49.40;99755.22;5028428;28;20033;-29
2022/07/26 06:35:23;;;;;;;9.52;5.43;;;;;;;27.45;49.26;99750.78;5029563;28;20409;-29
2022/07/26 06:37:49;;;;;;;8.32;5.00;;;;;;;27.25;49.11;99753.25;5028621;28;20063;-28
2022/07/26 06:40:14;;;;;;;6.30;5.10;;;;;;;27.22;49.33;99745.69;5028607;28;20033;-31
2022/07/26 06:42:40;;;;;;;8.30;5.82;;;;;;;27.59;49.58;99742.25;5029602;28;20374;-29
2022/07/26 06:45:06;;;;;;;8.65;5.28;;;;;;;27.75;48.65;99743.16;5029085;28;20072;-30
2022/07/26 06:47:31;;;;;;;9.57;5.30;;;;;;;27.93;48.67;99732.81;5027956;28;20033;-28
2022/07/26 06:49:57;;;;;;;8.00;5.40;;;;;;;28.02;48.13;99749.91;5029918;28;20087;-29
2022/07/26 06:52:22;;;;;;;6.63;5.00;;;;;;;28.12;47.97;99717.72;5029330;28;20430;-31
2022/07/26 06:54:48;;;;;;;8.20;5.55;;;;;;;28.27;47.07;99733.44;5028232;28;20110;-29
2022/07/26 06:57:13;;;;;;;11.13;5.93;;;;;;;28.58;46.16;99721.03;5029431;28;20037;-31
2022/07/26 06:59:39;;;;;;;9.35;5.95;;;;;;;28.62;46.13;99743.88;5028894;28;20126;-30
2022/07/26 07:02:04;;;;;;;9.55;6.15;;;;;;;28.57;47.45;99724.94;5029396;28;20517;-30
2022/07/26 07:04:32;;;;;;;7.90;5.80;;;;;;;28.77;47.76;99728.59;5029363;28;20033;-30
2022/07/26 07:07:02;;;;;;;;;;;;;;;28.75;46.88;99723.50;5029977;28;20025;-28
2022/07/26 07:09:28;;;;;;;9.32;6.13;;;;;;;28.62;46.67;99708.22;5026754;28;19917;-31
2022/07/26 07:11:54;;;;;;;10.02;6.25;;;;;;;28.77;46.52;99710.22;5027838;28;20053;-28
2022/07/26 07:14:19;;;;;;;14.00;6.45;;;;;;;28.97;45.69;99726.81;5029003;28;20029;-30
2022/07/26 07:16:45;;;;;;;24.42;8.65;;;;;;;28.99;45.46;99719.84;5029029;28;20053;-30
2022/07/26 07:19:10;;;;;;;11.43;7.18;;;;;;;28.93;45.00;99714.94;5027248;28;20037;-31
2022/07/26 07:21:36;;;;;;;8.07;6.63;;;;;;;29.09;45.71;99713.00;5028588;28;20055;-32
2022/07/26 07:24:01;;;;;;;9.25;6.75;;;;;;;29.53;45.32;99725.94;5027338;28;20064;-28
2022/07/26 07:26:27;;;;;;;9.23;7.03;;;;;;;29.47;44.72;99733.63;5028523;28;20033;-31
2022/07/26 07:28:52;;;;;;;9.38;6.63;;;;;;;29.40;45.13;99734.25;5029095;28;20456;-31
2022/07/26 07:31:18;;;;;;;14.50;8.60;;;;;;;29.45;45.83;99727.69;5028774;28;20624;-29
2022/07/26 07:33:43;;;;;;;11.77;7.35;;;;;;;29.74;44.41;99728.41;5028803;28;20053;-28
2022/07/26 07:36:09;;;;;;;9.73;7.25;;;;;;;29.37;44.53;99729.47;5028592;28;20042;-30
2022/07/26 07:38:34;;;;;;;14.73;7.45;;;;;;;29.42;45.29;99736.63;5028717;28;20045;-29
2022/07/26 07:41:00;;;;;;;12.50;7.47;;;;;;;29.25;44.75;99727.59;5028188;28;20500;-29
2022/07/26 07:43:25;;;;;;;11.63;7.07;;;;;;;29.54;45.60;99717.31;5028037;28;20033;-28
2022/07/26 07:45:51;;;;;;;14.82;7.50;;;;;;;30.04;43.97;99731.47;5028446;28;20029;-31
2022/07/26 07:48:16;;;;;;;11.13;7.47;;;;;;;29.75;44.24;99719.00;5028360;28;20095;-28
2022/07/26 07:50:42;;;;;;;10.60;7.32;;;;;;;29.75;44.53;99702.50;5028478;28;20442;-29
2022/07/26 07:53:07;;;;;;;8.85;7.95;;;;;;;30.00;43.74;99717.66;5026876;28;20029;-30
2022/07/26 07:55:33;;;;;;;8.13;7.30;;;;;;;30.40;42.88;99707.50;5028222;28;20481;-28
2022/07/26 07:57:58;;;;;;;11.23;8.65;;;;;;;30.44;43.23;99720.22;5027927;28;20033;-29
2022/07/26 08:00:25;;;;;;;9.23;7.63;;;;;;;30.74;41.78;99727.84;5028747;28;20029;-29
2022/07/26 08:02:51;;;;;;;9.32;7.45;;;;;;;30.58;42.88;99702.38;5026909;28;20105;-31
2022/07/26 08:05:16;;;;;;;10.93;7.57;;;;;;;30.52;42.85;99698.31;5027986;28;20037;-32
2022/07/26 08:07:42;;;;;;;11.15;7.97;;;;;;;30.82;41.34;99712.28;5028311;28;20486;-29
2022/07/26 08:10:08;;;;;;;10.82;7.93;;;;;;;30.80;42.13;99715.38;5027964;28;20103;-28
2022/07/26 08:12:34;;;;;;;9.68;7.45;;;;;;;31.17;41.98;99711.38;5026536;28;20034;-30
2022/07/26 08:15:00;;;;;;;10.68;7.47;;;;;;;31.24;41.30;99714.22;5026764;28;20037;-29
2022/07/26 08:17:25;;;;;;;9.75;7.90;;;;;;;31.36;41.58;99703.03;5027577;28;20048;-31
2022/07/26 08:19:50;;;;;;;12.20;7.72;;;;;;;31.30;40.24;99711.97;5027548;28;20025;-29
2022/07/26 08:22:16;;;;;;;8.45;7.50;;;;;;;31.34;41.32;99699.84;5027774;28;20033;-35
2022/07/26 08:24:44;;;;;;;10.70;7.93;;;;;;;31.41;41.07;99702.72;5027869;28;20025;-32
2022/07/26 08:27:09;;;;;;;8.85;7.50;;;;;;;31.49;39.67;99706.44;5026053;28;20041;-29
2022/07/26 08:29:35;;;;;;;10.85;7.15;;;;;;;31.32;40.74;99684.84;5027686;28;20704;-29
2022/07/26 08:32:00;;;;;;;10.38;7.40;;;;;;;31.25;40.49;99702.06;5026279;28;20037;-28
2022/07/26 08:34:26;;;;;;;8.43;6.68;;;;;;;31.41;39.88;99696.44;5027770;28;20034;-34
2022/07/26 08:36:51;;;;;;;8.18;7.30;;;;;;;31.33;40.24;99675.44;5027403;28;20048;-29
2022/07/26 08:39:17;;;;;;;8.30;7.25;;;;;;;31.59;40.58;99678.25;5025787;28;20035;-35
2022/07/26 08:41:42;;;;;;;8.27;6.90;;;;;;;31.81;39.04;99678.56;5027046;28;20037;-30
2022/07/26 08:44:10;;;;;;;8.48;7.53;;;;;;;31.99;39.73;99682.38;5027590;28;20531;-28
2022/07/26 08:46:38;;;;;;;8.88;7.10;;;;;;;32.23;39.18;99683.88;5026020;28;20540;-27
2022/07/26 08:49:05;;;;;;;11.93;7.82;;;;;;;32.37;40.57;99677.75;5025963;28;20040;-28
2022/07/26 08:51:32;;;;;;;8.65;6.90;;;;;;;31.69;41.23;99670.50;5025688;28;20052;-29
2022/07/26 08:54:00;;;;;;;9.23;6.73;;;;;;;32.22;39.18;99664.94;5025792;28;20044;-32
2022/07/26 08:56:26;;;;;;;10.55;7.80;;;;;;;32.26;38.01;99665.78;5027379;28;20053;-28
2022/07/26 08:58:51;;;;;;;8.75;7.07;;;;;;;32.48;38.27;99672.34;5027391;28;20104;-29
2022/07/26 09:01:17;;;;;;;8.05;7.15;;;;;;;32.77;37.03;99669.94;5027348;28;20116;-38
2022/07/26 09:03:44;;;;;;;9.52;7.10;;;;;;;32.81;37.38;99674.31;5026765;28;20044;-32
2022/07/26 09:06:14;;;;;;;9.05;7.35;;;;;;;33.23;38.14;99658.56;5025712;28;20608;-29
2022/07/26 09:08:41;;;;;;;11.15;7.57;;;;;;;33.25;38.23;99675.53;5025301;28;20029;-28
2022/07/26 09:11:33;;;;;;;10.32;6.85;;;;;;;33.42;36.64;99674.09;5025784;28;20061;-30
2022/07/26 09:14:03;;;;;;;8.80;7.20;;;;;;;33.73;36.23;99663.66;5024758;28;20566;-29
2022/07/26 09:16:30;;;;;;;9.18;7.68;;;;;;;33.51;36.68;99659.94;5026892;28;20220;-31
2022/07/26 09:19:14;;;;;;;9.98;7.45;;;;;;;33.39;36.92;99652.75;5025584;28;20030;-29
2022/07/26 09:21:40;;;;;;;11.15;7.07;;;;;;;33.53;35.50;99663.94;5025680;28;20036;-35
2022/07/26 09:24:05;;;;;;;8.02;6.50;;;;;;;33.95;35.87;99648.00;5027193;28;20030;-28
2022/07/26 09:26:31;;;;;;;8.05;7.22;;;;;;;33.88;35.11;99657.06;5025673;28;20029;-30
2022/07/26 09:29:08;;;;;;;9.30;6.97;;;;;;;33.68;35.45;99647.47;5027039;28;20049;-28
2022/07/26 09:31:35;;;;;;;9.00;6.95;;;;;;;34.00;34.89;99642.88;5027794;28;20029;-32
2022/07/26 09:34:00;;;;;;;12.13;6.82;;;;;;;33.98;34.46;99636.13;5029552;28;20033;-30
2022/07/26 09:36:26;;;;;;;9.30;7.07;;;;;;;34.41;33.63;99639.91;5031187;28;20404;-37
2022/07/26 09:38:54;;;;;;;12.23;7.35;;;;;;;34.60;33.51;99643.50;5029503;28;20029;-28
2022/07/26 09:41:21;;;;;;;8.45;7.65;;;;;;;34.19;32.32;99633.50;5029065;28;20037;-30
2022/07/26 09:43:47;;;;;;;8.80;6.83;;;;;;;34.35;33.58;99624.88;5029314;28;20029;-27
2022/07/26 09:46:13;;;;;;;7.73;6.43;;;;;;;34.28;33.61;99622.06;5028840;28;20021;-28
2022/07/26 09:48:39;;;;;;;9.48;7.20;;;;;;;34.42;33.32;99619.31;5029500;28;20256;-31
2022/07/26 09:51:08;;;;;;;8.23;6.30;;;;;;;34.49;34.47;99606.69;5030634;28;20068;-30
2022/07/26 09:53:52;;;;;;;8.50;6.93;;;;;;;34.54;32.65;99609.09;5028690;28;20030;-29
2022/07/26 09:56:18;;;;;;;9.77;7.32;;;;;;;34.53;34.06;99615.78;5027461;28;20030;-28
2022/07/26 09:58:45;;;;;;;7.97;7.10;;;;;;;34.69;33.89;99605.16;5027952;28;20049;-32
2022/07/26 10:01:11;;;;;;;;;;;;;;;34.68;32.10;99613.91;5027797;28;20033;-27
2022/07/26 10:03:36;;;;;;;8.50;6.83;;;;;;;34.65;33.91;99586.97;5029036;28;20094;-27
2022/07/26 10:06:02;;;;;;;7.90;6.57;;;;;;;35.33;33.59;99604.41;5027364;28;20776;-29
2022/07/26 10:08:29;;;;;;;7.35;6.60;;;;;;;35.56;32.30;99614.28;5027511;28;20022;-29
2022/07/26 10:11:04;;;;;;;7.68;6.90;;;;;;;35.67;31.75;99600.41;5027243;28;20029;-31
2022/07/26 10:13:30;;;;;;;14.27;10.20;;;;;;;35.72;31.27;99598.00;5024898;28;20798;-30
2022/07/26 10:15:55;;;;;;;11.00;7.90;;;;;;;35.88;30.57;99602.28;5028579;28;20046;-28
2022/07/26 10:18:54;;;;;;;7.70;6.90;;;;;;;36.15;31.34;99597.84;5028820;28;20037;-30
2022/07/26 10:21:26;;;;;;;9.55;7.55;;;;;;;36.04;29.27;99608.16;5015850;28;20080;-31
2022/07/26 10:23:57;;;;;;;8.65;7.30;;;;;;;35.83;29.32;99586.09;5020241;28;20154;-31
2022/07/26 10:26:31;;;;;;;8.50;7.55;;;;;;;36.09;29.00;99605.00;5025477;28;20053;-29
2022/07/26 10:29:18;;;;;;;9.57;7.63;;;;;;;36.32;28.19;99590.63;5029601;28;20099;-29
2022/07/26 10:32:04;;;;;;;;;;;;;;;36.31;28.68;99591.81;5010157;28;20509;-29
2022/07/26 10:34:38;;;;;;;9.88;7.22;;;;;;;36.60;27.88;99574.97;5026929;28;19921;-30
2022/07/26 10:37:09;;;;;;;7.65;6.50;;;;;;;36.29;27.53;99569.22;5026895;28;20037;-28
2022/07/26 10:39:36;;;;;;;9.43;6.85;;;;;;;36.57;26.58;99576.56;5026913;28;20868;-33
2022/07/26 10:42:05;;;;;;;7.65;6.65;;;;;;;36.55;25.89;99576.16;5025824;28;20014;-30
2022/07/26 10:44:43;;;;;;;9.65;7.13;;;;;;;36.91;25.60;99566.81;5024836;28;20112;-31
2022/07/26 10:47:11;;;;;;;9.15;6.47;;;;;;;36.99;26.31;99568.34;5028009;28;20028;-30
2022/07/26 10:49:51;;;;;;;8.15;6.15;;;;;;;37.39;26.05;99560.41;5026564;28;20390;-28
2022/07/26 10:52:19;;;;;;;8.52;6.80;;;;;;;37.65;24.67;99560.94;5025676;28;20128;-29
2022/07/26 10:55:00;;;;;;;8.25;6.60;;;;;;;37.84;25.72;99556.72;5026266;28;20626;-31
2022/07/26 10:57:34;;;;;;;9.43;6.68;;;;;;;37.57;26.68;99549.84;5028581;28;20124;-31
2022/07/26 11:00:08;;;;;;;9.02;6.30;;;;;;;37.99;26.40;99539.44;5035813;28;20492;-32
2022/07/26 11:02:34;;;;;;;8.20;6.80;;;;;;;37.89;25.33;99553.50;5026406;28;20025;-30
2022/07/26 11:05:11;;;;;;;7.70;6.90;;;;;;;37.83;25.10;99544.81;5028102;28;20037;-29
2022/07/26 11:07:49;;;;;;;7.38;6.30;;;;;;;38.05;25.29;99545.34;5027471;28;20115;-31
2022/07/26 11:10:14;;;;;;;8.30;6.30;;;;;;;38.04;24.22;99529.03;5026587;28;20504;-29
2022/07/26 11:12:40;;;;;;;7.25;6.07;;;;;;;38.22;24.26;99518.44;5026401;28;20033;-32
2022/07/26 11:15:14;;;;;;;8.60;5.83;;;;;;;38.16;23.23;99534.06;5027047;28;20048;-28
2022/07/26 11:17:40;;;;;;;8.27;6.32;;;;;;;38.05;23.80;99523.09;5025676;28;20131;-32
2022/07/26 11:20:06;;;;;;;7.70;5.93;;;;;;;37.93;23.88;99529.19;5026164;28;20127;-34
2022/07/26 11:22:35;;;;;;;8.93;6.03;;;;;;;37.80;22.79;99517.81;5028397;28;20034;-30
2022/07/26 11:25:03;;;;;;;7.13;6.18;;;;;;;37.74;23.38;99508.34;5027060;28;20789;-33
2022/07/26 11:27:29;;;;;;;9.05;6.00;;;;;;;37.96;23.52;99512.41;5028155;28;20026;-28
2022/07/26 11:29:54;;;;;;;8.52;6.13;;;;;;;37.90;24.08;99500.19;5028499;28;20515;-28